Time;durP1;ratioP1;P1;durP2;ratioP2;P2;SDS_P1;SDS_P2;PMS_P1;PMS_P2;Temp;Humidity;BMP_temperature;BMP_pressure;BME280_temperature;BME280_humidity;BME280_pressure;Samples;Min_cycle;Max_cycle;Signal;HPM_P1;HPM_P2
2021/04/17 00:01:33;;;;;;;5.75;0.70;;;5.90;99.90;;;4.57;68.27;102027.28;4907676;28;20087;-81
2021/04/17 00:03:57;;;;;;;1.85;0.50;;;6.00;99.90;;;4.73;66.44;102029.88;4907308;28;20120;-83
2021/04/17 00:06:20;;;;;;;3.05;0.60;;;;;;;4.77;66.08;102024.63;4907444;28;20080;-84
2021/04/17 00:08:43;;;;;;;1.58;0.73;;;6.20;99.90;;;4.88;64.41;102021.16;4907403;28;20336;-84
2021/04/17 00:11:07;;;;;;;0.88;0.50;;;6.30;99.90;;;4.97;63.86;102012.41;4907546;28;21308;-84
2021/04/17 00:13:31;;;;;;;7.38;0.55;;;6.40;99.90;;;5.06;62.41;102016.75;4907776;28;20414;-79
2021/04/17 00:15:54;;;;;;;3.75;1.40;;;6.50;99.90;;;5.05;62.40;102012.38;4906951;28;20097;-83
2021/04/17 00:18:17;;;;;;;1.02;0.40;;;6.50;99.90;;;5.07;62.46;102008.03;4907622;28;20516;-83
2021/04/17 00:20:40;;;;;;;3.70;0.50;;;6.50;99.90;;;5.07;62.19;102001.06;4906397;28;20115;-82
2021/04/17 00:23:02;;;;;;;4.07;0.90;;;6.50;99.90;;;5.11;61.60;102010.63;4906347;28;20134;-84
2021/04/17 00:25:25;;;;;;;1.67;0.52;;;6.50;99.90;;;5.08;61.37;102005.41;4906416;28;20088;-84
2021/04/17 00:27:49;;;;;;;2.72;0.40;;;6.50;99.90;;;5.11;61.02;102008.00;4906959;28;20082;-83
2021/04/17 00:30:13;;;;;;;1.08;0.30;;;6.50;99.90;;;5.13;60.59;102010.63;4905033;28;20088;-80
2021/04/17 00:32:36;;;;;;;2.53;0.60;;;6.50;99.90;;;5.08;61.49;102015.84;4907625;28;20578;-83
2021/04/17 00:34:58;;;;;;;0.73;0.50;;;6.50;99.90;;;5.03;60.36;102009.78;4906412;28;20425;-81
2021/04/17 00:37:21;;;;;;;3.88;0.52;;;6.40;99.90;;;5.02;60.63;102004.56;4907295;28;20443;-83
2021/04/17 00:39:44;;;;;;;0.82;0.32;;;6.50;99.90;;;5.07;59.37;102002.81;4906678;28;20095;-83
2021/04/17 00:42:08;;;;;;;0.63;0.50;;;6.50;99.90;;;5.02;59.48;102001.97;4906215;28;20095;-80
2021/04/17 00:44:33;;;;;;;1.55;0.30;;;6.40;99.90;;;4.88;59.93;102008.09;4905109;28;20087;-83
2021/04/17 00:46:56;;;;;;;0.73;0.40;;;6.30;99.90;;;4.86;60.17;102008.94;4906619;28;20638;-83
2021/04/17 00:49:19;;;;;;;0.93;0.57;;;6.20;99.90;;;4.81;60.19;102008.97;4906161;28;20081;-82
2021/04/17 00:51:42;;;;;;;1.27;0.50;;;6.20;99.90;;;4.80;60.48;102002.03;4907329;28;20542;-83
2021/04/17 00:54:05;;;;;;;2.03;0.40;;;6.20;99.90;;;4.62;62.05;102010.75;4907798;28;20141;-85
2021/04/17 00:56:28;;;;;;;0.35;0.30;;;6.00;99.90;;;4.58;62.40;102006.41;4906191;28;20108;-83
2021/04/17 00:58:51;;;;;;;3.10;0.20;;;6.00;99.90;;;4.55;62.43;102002.94;4910388;28;20141;-84
2021/04/17 01:01:15;;;;;;;1.48;0.50;;;6.00;99.90;;;4.58;62.03;102006.41;4909598;28;20082;-82
2021/04/17 01:03:49;;;;;;;2.35;0.50;;;5.90;99.90;;;4.54;61.68;102003.81;4910692;28;20176;-82
2021/04/17 01:06:21;;;;;;;2.80;0.30;;;5.90;99.90;;;4.47;62.02;101990.78;4910062;28;20089;-82
2021/04/17 01:08:49;;;;;;;1.30;0.50;;;;;;;4.59;61.62;101992.47;4909267;28;20082;-83
2021/04/17 01:11:21;;;;;;;4.68;0.60;;;5.90;99.90;;;4.45;62.27;101996.84;4909516;28;20079;-82
2021/04/17 01:13:44;;;;;;;3.00;0.60;;;5.80;99.90;;;4.39;62.36;101989.91;4909498;28;22137;-83
2021/04/17 01:16:08;;;;;;;2.13;0.40;;;;;;;4.41;62.66;101980.34;4909299;28;20155;-84
2021/04/17 01:18:32;;;;;;;1.25;0.50;;;;;;;4.35;63.06;101992.53;4910877;28;20082;-84
2021/04/17 01:20:59;;;;;;;4.10;0.55;;;5.70;99.90;;;4.30;63.49;101982.09;4909474;28;20078;-83
2021/04/17 01:23:31;;;;;;;4.72;0.60;;;5.80;99.90;;;4.25;64.30;101978.59;4909687;28;20386;-83
2021/04/17 01:26:00;;;;;;;2.10;0.50;;;5.70;99.90;;;4.23;64.52;101975.13;4909198;28;20085;-84
2021/04/17 01:28:26;;;;;;;3.60;0.88;;;5.70;99.90;;;4.18;65.04;101982.09;4909834;28;20073;-83
2021/04/17 01:30:50;;;;;;;;;;;5.70;99.90;;;4.24;64.59;101977.75;4908718;28;20085;-84
2021/04/17 01:33:15;;;;;;;5.53;1.10;;;5.70;99.90;;;4.15;65.48;101982.06;4909518;28;20460;-83
2021/04/17 01:35:38;;;;;;;6.18;0.73;;;5.60;99.90;;;4.07;65.12;101971.66;4909796;28;20499;-82
2021/04/17 01:38:25;;;;;;;6.00;0.70;;;5.60;99.90;;;4.08;64.89;101970.78;4908257;28;20086;-82
2021/04/17 01:40:54;;;;;;;6.13;0.60;;;5.50;99.90;;;3.95;65.65;101969.03;4907974;28;20089;-82
2021/04/17 01:43:22;;;;;;;4.43;1.05;;;5.40;99.90;;;3.81;66.46;101964.69;4906701;28;20089;-83
2021/04/17 01:45:46;;;;;;;3.50;0.43;;;5.30;99.90;;;3.77;66.39;101962.94;4908282;28;20090;-82
2021/04/17 01:48:11;;;;;;;4.53;0.70;;;5.20;99.90;;;3.67;66.88;101969.00;4908709;28;20152;-83
2021/04/17 01:50:36;;;;;;;6.47;0.70;;;5.10;99.90;;;3.58;66.94;101964.63;4907606;28;20083;-82
2021/04/17 01:53:02;;;;;;;1.63;0.60;;;5.10;99.90;;;3.66;66.11;101964.66;4908082;28;20095;-82
2021/04/17 01:55:26;;;;;;;1.92;0.52;;;5.10;99.90;;;3.60;66.43;101965.50;4910017;28;20085;-82
2021/04/17 01:57:50;;;;;;;4.03;0.70;;;;;;;3.59;66.49;101962.94;4906970;28;20091;-82
2021/04/17 02:00:15;;;;;;;0.80;0.52;;;5.10;99.90;;;3.54;66.75;101960.28;4909933;28;20086;-81
2021/04/17 02:02:38;;;;;;;3.30;0.63;;;;;;;3.31;67.90;101965.44;4908777;28;20457;-79
2021/04/17 02:05:00;;;;;;;6.28;0.85;;;4.80;99.90;;;3.25;68.14;101953.28;4909592;28;20083;-82
2021/04/17 02:07:23;;;;;;;0.77;0.45;;;4.70;99.90;;;3.18;68.43;101956.72;4906722;28;20083;-82
2021/04/17 02:09:47;;;;;;;9.27;0.70;;;4.80;99.90;;;3.37;67.26;101968.09;4908924;28;20075;-81
2021/04/17 02:12:10;;;;;;;1.20;0.55;;;4.80;99.90;;;3.22;68.25;101968.03;4908357;28;20132;-79
2021/04/17 02:14:34;;;;;;;5.95;0.90;;;4.70;99.90;;;3.14;68.41;101961.91;4907935;28;20087;-81
2021/04/17 02:17:07;;;;;;;1.88;0.60;;;4.60;99.90;;;3.14;68.21;101957.59;4908174;28;20113;-83
2021/04/17 02:19:39;;;;;;;2.38;0.70;;;4.60;99.90;;;3.10;68.59;101954.97;4906319;28;20095;-83
2021/04/17 02:22:03;;;;;;;3.90;0.85;;;4.50;99.90;;;2.98;69.24;101959.25;4906189;28;20089;-82
2021/04/17 02:24:29;;;;;;;1.60;0.60;;;4.50;99.90;;;3.03;69.21;101957.53;4907601;28;20078;-81
2021/04/17 02:26:52;;;;;;;0.70;0.43;;;4.50;99.90;;;3.03;69.28;101960.13;4906118;28;20094;-83
2021/04/17 02:29:14;;;;;;;6.88;0.60;;;4.60;99.90;;;3.15;69.67;101963.66;4909021;28;20082;-83
2021/04/17 02:31:38;;;;;;;4.18;0.50;;;4.60;99.90;;;3.04;69.87;101971.41;4907340;28;20086;-80
2021/04/17 02:34:03;;;;;;;7.15;0.80;;;4.60;99.90;;;3.10;69.64;101965.38;4910088;28;20175;-83
2021/04/17 02:36:26;;;;;;;4.65;0.77;;;4.60;99.90;;;3.15;69.79;101964.50;4907854;28;20082;-83
2021/04/17 02:38:49;;;;;;;3.17;0.88;;;4.50;99.90;;;3.03;70.44;101970.53;4907992;28;20097;-83
2021/04/17 02:41:14;;;;;;;2.42;0.50;;;4.60;99.90;;;3.08;70.28;101974.03;4907823;28;20136;-83
2021/04/17 02:43:36;;;;;;;3.55;0.82;;;4.50;99.90;;;3.14;70.25;101980.13;4907158;28;20094;-82
2021/04/17 02:45:59;;;;;;;7.68;0.88;;;4.50;99.90;;;3.00;71.01;101975.75;4908903;28;20596;-83
2021/04/17 02:48:22;;;;;;;5.97;0.65;;;4.40;99.90;;;2.91;71.60;101980.03;4907664;28;20088;-83
2021/04/17 02:50:46;;;;;;;6.50;0.60;;;;;;;2.83;71.57;101965.25;4909946;28;20140;-80
2021/04/17 02:53:09;;;;;;;3.63;0.85;;;4.40;99.90;;;2.79;71.73;101967.84;4906654;28;20122;-83
2021/04/17 02:55:32;;;;;;;3.00;0.68;;;;;;;2.77;72.28;101964.34;4907324;28;20095;-83
2021/04/17 02:57:55;;;;;;;11.30;1.08;;;4.30;99.90;;;2.78;72.32;101963.47;4906309;28;20083;-82
2021/04/17 03:00:23;;;;;;;5.95;1.13;;;4.30;99.90;;;2.81;72.37;101960.91;4907734;28;20159;-83
2021/04/17 03:02:46;;;;;;;4.93;1.13;;;4.30;99.90;;;2.87;72.02;101963.53;4905710;28;20593;-83
2021/04/17 03:05:11;;;;;;;4.65;0.68;;;4.30;99.90;;;2.79;72.29;101960.03;4907489;28;20106;-82
2021/04/17 03:07:35;;;;;;;3.05;1.00;;;4.30;99.90;;;2.80;72.48;101954.81;4905446;28;20097;-82
2021/04/17 03:09:57;;;;;;;5.97;0.70;;;4.30;99.90;;;2.80;73.30;101947.00;4907442;28;20098;-81
2021/04/17 03:12:21;;;;;;;4.00;0.80;;;4.30;99.90;;;2.67;73.54;101950.41;4907026;28;20548;-80
2021/04/17 03:14:43;;;;;;;5.95;0.90;;;4.20;99.90;;;2.54;74.85;101946.00;4907581;28;20152;-82
2021/04/17 03:17:07;;;;;;;5.72;0.68;;;;;;;2.50;74.96;101949.44;4906764;28;20095;-83
2021/04/17 03:19:29;;;;;;;5.10;0.90;;;4.00;99.90;;;2.52;75.08;101940.78;4905476;28;20091;-82
2021/04/17 03:21:54;;;;;;;4.88;1.00;;;4.20;99.90;;;2.77;74.22;101938.34;4904935;28;20113;-82
2021/04/17 03:24:18;;;;;;;3.17;0.93;;;4.30;99.90;;;2.81;74.48;101930.56;4906912;28;20147;-82
2021/04/17 03:26:40;;;;;;;5.93;0.80;;;4.40;99.90;;;2.91;74.20;101936.66;4906919;28;20091;-82
2021/04/17 03:29:04;;;;;;;10.15;1.15;;;4.40;99.90;;;2.88;74.58;101932.31;4905777;28;20609;-80
2021/04/17 03:31:26;;;;;;;10.38;0.93;;;4.40;99.90;;;2.86;74.94;101938.38;4908841;28;20085;-83
2021/04/17 03:33:49;;;;;;;4.93;1.00;;;4.40;99.90;;;2.85;75.21;101934.03;4906569;28;20098;-82
2021/04/17 03:36:12;;;;;;;7.97;0.98;;;4.40;99.90;;;2.83;75.08;101928.84;4907181;28;20468;-82
2021/04/17 03:38:35;;;;;;;2.75;0.85;;;4.30;99.90;;;2.75;75.74;101921.84;4906723;28;20090;-83
2021/04/17 03:40:58;;;;;;;6.57;0.80;;;4.30;99.90;;;2.71;75.91;101926.16;4906522;28;20094;-83
2021/04/17 03:43:22;;;;;;;7.00;1.13;;;;;;;2.65;76.65;101923.53;4906598;28;20577;-81
2021/04/17 03:45:44;;;;;;;7.40;0.73;;;4.30;99.90;;;2.76;76.25;101929.66;4897337;28;20522;-82
2021/04/17 03:48:08;;;;;;;5.95;1.00;;;4.20;99.90;;;2.71;76.43;101925.31;4906401;28;20109;-83
2021/04/17 03:50:31;;;;;;;7.22;0.95;;;4.20;99.90;;;2.61;76.94;101924.38;4905735;28;20087;-83
2021/04/17 03:52:55;;;;;;;3.15;0.65;;;4.10;99.90;;;2.56;77.19;101929.56;4905717;28;20102;-81
2021/04/17 03:55:18;;;;;;;13.68;1.08;;;4.10;99.90;;;2.53;77.41;101931.25;4907135;28;20086;-81
2021/04/17 03:57:43;;;;;;;6.75;1.10;;;4.00;99.90;;;2.56;77.67;101936.50;4905297;28;20086;-83
2021/04/17 04:00:10;;;;;;;4.13;0.90;;;4.00;99.90;;;2.57;77.83;101944.31;4905905;28;20099;-81
2021/04/17 04:02:33;;;;;;;6.35;0.80;;;4.00;99.90;;;2.44;78.23;101952.88;4906428;28;20097;-83
2021/04/17 04:04:55;;;;;;;7.35;1.10;;;4.00;99.90;;;2.43;78.34;101956.34;4902660;28;20160;-81
2021/04/17 04:07:18;;;;;;;10.75;1.00;;;3.90;99.90;;;2.43;78.21;101958.94;4906389;28;20102;-83
2021/04/17 04:09:41;;;;;;;9.65;1.20;;;3.90;99.90;;;2.40;78.93;101964.13;4904366;28;20082;-83
2021/04/17 04:12:08;;;;;;;8.60;1.50;;;3.90;99.90;;;2.35;78.63;101974.47;4906854;28;20083;-83
2021/04/17 04:14:31;;;;;;;5.05;1.30;;;3.80;99.90;;;2.20;78.91;101970.06;4904573;28;20087;-83
2021/04/17 04:16:54;;;;;;;5.00;0.85;;;3.70;99.90;;;2.07;79.16;101973.38;4905860;28;20549;-82
2021/04/17 04:19:17;;;;;;;5.78;1.58;;;3.60;99.90;;;2.01;79.97;101965.56;4905122;28;20098;-79
2021/04/17 04:21:41;;;;;;;6.45;1.13;;;3.50;99.90;;;1.94;79.97;101967.19;4907360;28;20510;-83
2021/04/17 04:24:05;;;;;;;5.03;1.25;;;;;;;1.86;80.11;101966.28;4905041;28;20089;-83
2021/04/17 04:26:27;;;;;;;3.25;0.80;;;3.40;99.90;;;1.76;79.44;101962.72;4906231;28;20144;-82
2021/04/17 04:28:50;;;;;;;4.43;1.30;;;;;;;1.75;80.72;101965.28;4904524;28;20171;-82
2021/04/17 04:31:14;;;;;;;4.35;1.10;;;3.30;99.90;;;1.70;80.93;101962.66;4905183;28;20091;-81
2021/04/17 04:33:37;;;;;;;4.60;1.23;;;;;;;1.67;82.45;101965.25;4909364;28;20094;-82
2021/04/17 04:36:00;;;;;;;5.03;1.25;;;3.20;99.90;;;1.64;82.29;101965.19;4908891;28;20101;-82
2021/04/17 04:38:23;;;;;;;8.57;0.98;;;3.20;99.90;;;1.64;82.27;101965.19;4909488;28;20441;-81
2021/04/17 04:40:46;;;;;;;6.38;1.70;;;3.20;99.90;;;1.70;82.67;101965.25;4905461;28;20082;-79
2021/04/17 04:43:09;;;;;;;14.95;1.23;;;3.30;99.90;;;1.77;83.09;101954.09;4908898;28;20102;-83
2021/04/17 04:45:32;;;;;;;10.80;0.93;;;3.30;99.90;;;1.74;83.13;101969.63;4909249;28;20600;-82
2021/04/17 04:47:56;;;;;;;6.05;1.05;;;;;;;1.95;82.11;101965.50;4908363;28;20105;-81
2021/04/17 04:50:19;;;;;;;7.50;1.23;;;3.60;99.90;;;2.12;82.23;101960.47;4909218;28;20097;-81
2021/04/17 04:52:42;;;;;;;9.82;1.17;;;3.80;99.90;;;2.22;81.86;101963.09;4909590;28;20135;-82
2021/04/17 04:55:07;;;;;;;6.60;1.30;;;3.80;99.90;;;2.16;82.01;101957.00;4909446;28;20108;-83
2021/04/17 04:57:29;;;;;;;7.15;1.05;;;3.70;99.90;;;2.19;82.51;101965.69;4909791;28;20307;-83
2021/04/17 04:59:52;;;;;;;9.48;1.35;;;3.80;99.90;;;2.23;82.83;101956.19;4909812;28;20117;-82
2021/04/17 05:02:15;;;;;;;4.47;1.25;;;3.90;99.90;;;2.45;82.78;101955.47;4909417;28;20169;-80
2021/04/17 05:04:41;;;;;;;4.93;0.80;;;4.10;99.90;;;2.64;82.21;101966.88;4910757;28;20114;-83
2021/04/17 05:07:04;;;;;;;3.05;1.02;;;4.30;99.90;;;2.77;81.72;101966.97;4910403;28;20086;-83
2021/04/17 05:09:27;;;;;;;10.32;1.13;;;4.40;99.90;;;2.96;81.03;101960.97;4908981;28;20092;-82
2021/04/17 05:11:50;;;;;;;4.18;1.00;;;4.60;99.90;;;3.19;80.66;101962.78;4910790;28;20433;-81
2021/04/17 05:14:13;;;;;;;9.80;1.88;;;4.80;99.90;;;3.52;80.13;101961.16;4910893;28;20102;-83
2021/04/17 05:16:35;;;;;;;9.07;2.00;;;5.20;99.90;;;3.93;78.72;101955.13;4909256;28;20081;-85
2021/04/17 05:18:58;;;;;;;6.05;1.20;;;5.70;99.90;;;4.47;77.00;101963.78;4909040;28;20092;-83
2021/04/17 05:21:22;;;;;;;9.30;1.48;;;6.30;99.90;;;5.18;75.82;101956.63;4911149;28;20452;-84
2021/04/17 05:23:45;;;;;;;4.07;0.90;;;7.10;99.90;;;6.06;71.51;101950.88;4910590;28;20447;-83
2021/04/17 05:26:08;;;;;;;8.65;1.35;;;;;;;6.30;69.54;101950.66;4908850;28;20157;-84
2021/04/17 05:28:31;;;;;;;15.07;1.70;;;8.00;99.90;;;5.93;70.15;101958.78;4907993;28;20091;-83
2021/04/17 05:30:54;;;;;;;8.43;1.40;;;7.40;99.90;;;5.43;73.14;101952.16;4910209;28;20074;-82
2021/04/17 05:33:16;;;;;;;6.82;1.00;;;7.10;99.90;;;5.60;72.73;101956.44;4910603;28;20083;-83
2021/04/17 05:35:39;;;;;;;6.95;1.60;;;7.80;99.90;;;6.51;70.17;101952.22;4909658;28;20139;-83
2021/04/17 05:38:04;;;;;;;4.28;1.10;;;8.60;99.90;;;7.02;67.51;101943.81;4907761;28;20078;-82
2021/04/17 05:40:27;;;;;;;9.25;1.50;;;8.90;99.90;;;6.98;67.40;101942.97;4909337;28;20125;-82
2021/04/17 05:42:50;;;;;;;7.68;0.88;;;;;;;7.29;66.59;101947.81;4909496;28;20538;-82
2021/04/17 05:45:14;;;;;;;7.85;1.35;;;8.90;99.90;;;6.95;67.50;101939.50;4900862;28;20084;-81
2021/04/17 05:47:37;;;;;;;5.68;1.13;;;8.70;99.90;;;6.54;69.12;101940.84;4909322;28;20082;-82
2021/04/17 05:49:59;;;;;;;6.60;1.17;;;8.70;99.90;;;6.98;67.74;101939.47;4908266;28;20090;-83
2021/04/17 05:52:22;;;;;;;9.18;1.27;;;8.90;99.90;;;6.91;68.00;101951.78;4910152;28;20085;-80
2021/04/17 05:54:46;;;;;;;6.57;1.20;;;;;;;7.03;67.63;101947.28;4909887;28;20186;-83
2021/04/17 05:57:10;;;;;;;15.57;2.03;;;9.10;99.90;;;7.25;66.27;101947.88;4909085;28;20092;-82
2021/04/17 05:59:33;;;;;;;11.93;1.75;;;8.60;99.90;;;6.44;69.03;101953.16;4908005;28;20129;-82
2021/04/17 06:01:56;;;;;;;6.80;1.33;;;8.20;99.90;;;6.66;69.72;101948.56;4908936;28;20110;-81
2021/04/17 06:04:19;;;;;;;6.13;1.25;;;8.70;99.90;;;6.93;67.83;101955.25;4907877;28;20145;-82
2021/04/17 06:06:41;;;;;;;11.60;1.58;;;9.10;99.90;;;8.14;65.44;101954.38;4906899;28;20085;-82
2021/04/17 06:09:05;;;;;;;5.15;1.20;;;9.80;99.90;;;8.54;63.80;101957.22;4909308;28;20085;-81
2021/04/17 06:11:28;;;;;;;4.32;1.15;;;9.90;99.90;;;8.29;63.12;101951.50;4908035;28;20089;-78
2021/04/17 06:13:53;;;;;;;9.10;1.27;;;9.40;99.90;;;7.51;66.47;101953.59;4910403;28;20080;-85
2021/04/17 06:16:16;;;;;;;4.28;1.23;;;9.00;99.90;;;7.42;66.96;101958.97;4908443;28;20536;-84
2021/04/17 06:18:39;;;;;;;5.43;1.23;;;9.20;99.90;;;7.93;66.17;101958.25;4908553;28;20091;-84
2021/04/17 06:21:03;;;;;;;8.60;1.23;;;8.90;99.90;;;7.21;68.36;101967.13;4909067;28;20579;-79
2021/04/17 06:23:26;;;;;;;6.10;1.20;;;8.60;99.90;;;6.67;69.87;101957.28;4908564;28;20096;-83
2021/04/17 06:25:49;;;;;;;10.77;1.70;;;8.40;99.90;;;6.62;71.59;101959.09;4899109;28;20092;-85
2021/04/17 06:28:13;;;;;;;8.93;1.52;;;8.60;99.90;;;7.07;69.06;101973.41;4908997;28;20085;-82
2021/04/17 06:30:35;;;;;;;8.15;1.58;;;8.40;99.90;;;7.27;68.91;101970.53;4908124;28;20131;-84
2021/04/17 06:32:58;;;;;;;6.97;1.20;;;8.60;99.90;;;7.57;67.62;101960.53;4908611;28;20078;-86
2021/04/17 06:35:21;;;;;;;15.65;2.38;;;8.70;99.90;;;7.18;68.27;101968.03;4907243;28;20582;-82
2021/04/17 06:37:44;;;;;;;7.63;1.58;;;;;;;7.64;67.50;101967.41;4908241;28;20077;-83
2021/04/17 06:40:08;;;;;;;6.85;1.13;;;8.90;99.90;;;7.17;68.96;101956.69;4909513;28;20127;-83
2021/04/17 06:42:36;;;;;;;8.05;1.73;;;8.80;99.90;;;7.04;69.43;101954.22;4907983;28;20082;-86
2021/04/17 06:45:01;;;;;;;7.43;1.42;;;9.20;99.90;;;7.90;67.08;101953.03;4908456;28;20091;-85
2021/04/17 06:47:25;;;;;;;8.77;1.48;;;9.40;99.90;;;7.73;66.64;101961.16;4905622;28;20543;-83
2021/04/17 06:49:48;;;;;;;12.65;1.83;;;9.10;99.90;;;7.67;66.90;101958.66;4906777;28;20081;-86
2021/04/17 06:52:14;;;;;;;7.35;1.52;;;8.80;99.90;;;7.23;69.25;101960.13;4907956;28;20082;-83
2021/04/17 06:54:38;;;;;;;9.60;1.60;;;8.80;99.90;;;7.43;68.29;101962.47;4908554;28;20080;-81
2021/04/17 06:57:01;;;;;;;11.68;2.08;;;8.90;99.90;;;7.80;68.46;101966.28;4905412;28;20165;-85
2021/04/17 06:59:24;;;;;;;10.07;1.60;;;8.60;99.90;;;7.02;69.86;101967.38;4908348;28;20525;-83
2021/04/17 07:01:49;;;;;;;7.60;1.50;;;8.40;99.90;;;6.67;71.55;101976.47;4905193;28;20093;-82
2021/04/17 07:04:14;;;;;;;16.38;2.00;;;8.20;99.90;;;6.63;71.24;101976.50;4908344;28;20086;-88
2021/04/17 07:06:37;;;;;;;2.95;1.10;;;8.10;99.90;;;6.55;71.77;101974.00;4907427;28;20088;-88
2021/04/17 07:09:00;;;;;;;6.03;1.42;;;8.50;99.90;;;7.75;68.12;101976.00;4907987;28;20091;-84
2021/04/17 07:11:23;;;;;;;14.02;2.00;;;9.20;99.90;;;8.24;67.90;101978.72;4907208;28;20078;-85
2021/04/17 07:14:09;;;;;;;10.70;2.03;;;10.00;99.90;;;9.74;62.25;101970.50;4908787;28;20088;-84
2021/04/17 07:16:32;;;;;;;9.90;2.00;;;10.80;99.90;;;9.78;61.20;101973.91;4905590;28;20076;-87
2021/04/17 07:18:55;;;;;;;6.40;1.52;;;11.70;99.90;;;10.99;56.30;101972.56;4907525;28;20573;-87
2021/04/17 07:21:29;;;;;;;8.48;1.50;;;12.60;99.90;;;12.57;52.73;101972.00;4905364;28;20082;-86
2021/04/17 07:23:52;;;;;;;9.80;1.60;;;13.30;99.90;;;12.43;53.63;101981.28;4906389;28;20053;-84
2021/04/17 07:26:17;;;;;;;7.22;1.75;;;13.40;99.90;;;11.03;55.52;101982.97;4906850;28;20145;-84
2021/04/17 07:28:56;;;;;;;7.78;1.80;;;12.90;99.90;;;12.19;53.90;101982.97;4907507;28;20079;-85
2021/04/17 07:31:20;;;;;;;6.70;1.60;;;13.30;99.90;;;12.96;52.80;101974.13;4905809;28;20560;-82
2021/04/17 07:33:44;;;;;;;13.85;1.98;;;13.70;99.90;;;12.57;53.18;101972.91;4906452;28;20079;-84
2021/04/17 07:36:09;;;;;;;11.10;1.67;;;13.40;99.90;;;12.60;52.45;101983.34;4904699;28;20044;-81
2021/04/17 07:38:34;;;;;;;;;;;13.40;99.90;;;12.78;53.64;101980.97;4907073;28;20054;-81
2021/04/17 07:41:06;;;;;;;10.68;1.70;;;13.60;99.90;;;13.72;48.65;101965.94;4906391;28;19921;-80
2021/04/17 07:43:45;;;;;;;6.65;1.67;;;14.20;99.90;;;13.33;49.04;101969.25;4907163;28;20049;-83
2021/04/17 07:46:08;;;;;;;10.00;1.90;;;13.60;99.90;;;14.01;48.99;101971.84;4903510;28;20044;-82
2021/04/17 07:48:31;;;;;;;8.80;1.55;;;13.90;99.90;;;13.11;48.97;101970.94;4905905;28;20036;-78
2021/04/17 07:50:56;;;;;;;9.27;1.55;;;14.00;99.90;;;13.68;48.49;101974.94;4906893;28;20070;-81
2021/04/17 07:53:32;;;;;;;11.77;1.80;;;14.40;99.90;;;14.61;47.09;101971.13;4905848;28;20096;-84
2021/04/17 07:55:55;;;;;;;8.38;1.83;;;14.10;99.90;;;12.52;51.02;101983.59;4906526;28;20044;-86
2021/04/17 07:58:18;;;;;;;7.68;1.85;;;13.70;99.90;;;12.39;51.93;101974.38;4906352;28;20075;-84
2021/04/17 08:00:41;;;;;;;12.05;1.70;;;14.00;99.90;;;14.38;47.96;101972.94;4907476;28;20052;-82
2021/04/17 08:03:06;;;;;;;8.13;1.40;;;14.70;99.90;;;13.73;49.63;101980.88;4906751;28;20071;-83
2021/04/17 08:05:29;;;;;;;9.45;1.80;;;14.90;99.90;;;15.42;44.74;101978.06;4906652;28;20059;-83
2021/04/17 08:07:53;;;;;;;6.47;1.60;;;15.00;99.90;;;15.25;44.05;101972.66;4903441;28;20048;-81
2021/04/17 08:10:19;;;;;;;7.97;1.95;;;14.90;99.90;;;14.18;48.72;101988.81;4903412;28;20537;-81
2021/04/17 08:12:44;;;;;;;11.40;1.63;;;14.80;99.90;;;14.83;46.35;101985.16;4906286;28;20384;-81
2021/04/17 08:15:11;;;;;;;10.45;1.83;;;14.60;99.90;;;15.35;44.80;101985.41;4906428;28;20090;-78
2021/04/17 08:17:34;;;;;;;6.22;1.67;;;14.60;99.90;;;14.82;46.37;101988.75;4906481;28;20056;-80
2021/04/17 08:19:57;;;;;;;7.93;1.58;;;15.10;99.90;;;15.61;44.99;101999.25;4908355;28;20075;-82
2021/04/17 08:22:23;;;;;;;7.50;1.60;;;15.10;99.90;;;15.71;44.56;101992.63;4906322;28;20076;-80
2021/04/17 08:24:47;;;;;;;;;;;14.40;99.90;;;12.63;49.30;101995.56;4906444;28;20071;-80
2021/04/17 08:27:11;;;;;;;10.65;2.00;;;14.10;99.90;;;13.48;49.23;102004.81;4900759;28;19920;-81
2021/04/17 08:29:50;;;;;;;6.82;1.33;;;13.80;99.90;;;13.26;47.64;101993.28;4897493;28;20133;-81
2021/04/17 08:32:32;;;;;;;7.28;1.73;;;14.40;99.90;;;12.90;49.62;102007.81;4900849;28;20412;-84
2021/04/17 08:35:11;;;;;;;11.35;1.83;;;14.20;99.90;;;14.40;44.95;101994.94;4905121;28;20040;-83
2021/04/17 08:37:36;;;;;;;16.20;2.05;;;13.80;99.90;;;13.78;48.88;101999.25;4904429;28;20070;-84
2021/04/17 08:39:59;;;;;;;16.88;1.40;;;14.00;99.90;;;13.10;48.54;102007.09;4905291;28;20040;-85
2021/04/17 08:42:45;;;;;;;10.38;1.83;;;14.00;99.90;;;14.11;48.12;101997.03;4901777;28;20415;-82
2021/04/17 08:45:16;;;;;;;11.52;1.55;;;13.60;99.90;;;12.93;49.42;101996.25;4885166;28;20110;-82
2021/04/17 08:47:49;;;;;;;9.40;1.77;;;13.20;99.90;;;13.08;50.37;101997.50;4903524;28;20052;-80
2021/04/17 08:50:30;;;;;;;19.58;2.00;;;13.20;99.90;;;12.52;51.21;101995.94;4891126;28;20167;-83
2021/04/17 08:52:59;;;;;;;6.88;1.77;;;13.20;99.90;;;11.72;53.21;102000.31;4900652;28;20060;-81
2021/04/17 08:55:22;;;;;;;6.88;1.67;;;13.40;99.90;;;13.85;49.31;101989.28;4904286;28;20052;-82
2021/04/17 08:57:46;;;;;;;10.50;1.65;;;13.50;99.90;;;13.48;49.54;101988.09;4901892;28;20052;-82
2021/04/17 09:00:14;;;;;;;5.90;1.33;;;13.50;99.90;;;12.44;51.02;101995.34;4905249;28;20057;-78
2021/04/17 09:03:17;;;;;;;11.30;2.20;;;13.40;99.90;;;12.62;50.81;101986.78;4835050;28;20103;-81
2021/04/17 09:05:49;;;;;;;10.85;1.75;;;13.50;99.90;;;11.69;53.18;101982.81;4849180;28;20094;-80
2021/04/17 09:08:21;;;;;;;11.95;2.00;;;13.00;99.90;;;11.43;53.85;101981.81;4862201;28;20095;-81
2021/04/17 09:10:47;;;;;;;15.15;2.03;;;13.10;99.90;;;12.43;53.08;101985.72;4850329;28;20045;-79
2021/04/17 09:17:06;;;;;;;8.10;1.73;;;13.60;99.90;;;12.13;53.87;101985.81;4864214;28;21711;-81
2021/04/17 09:20:29;;;;;;;12.23;2.40;;;13.70;99.90;;;12.52;51.60;101985.38;4853180;28;20048;-82
2021/04/17 09:27:14;;;;;;;10.07;1.95;;;12.30;99.90;;;10.79;56.72;101989.81;4864703;28;20037;-83
2021/04/17 09:30:00;;;;;;;12.90;1.60;;;12.60;99.90;;;11.49;54.30;101978.16;4861585;28;20123;-84
2021/04/17 09:32:42;;;;;;;15.45;1.70;;;13.10;99.90;;;11.90;54.46;101981.31;4863684;28;20053;-83
2021/04/17 09:35:24;;;;;;;8.68;1.55;;;12.30;99.90;;;9.92;58.26;101979.72;4858119;28;20445;-84
2021/04/17 09:38:29;;;;;;;14.27;1.80;;;11.10;99.90;;;9.31;64.40;101989.84;4848934;28;20081;-82
2021/04/17 09:40:54;;;;;;;17.52;2.08;;;11.00;99.90;;;10.24;61.59;101980.72;4847094;28;20512;-87
2021/04/17 09:43:31;;;;;;;9.82;2.05;;;11.60;99.90;;;10.09;59.97;101973.19;4843103;28;20199;-85
2021/04/17 09:46:12;;;;;;;10.50;2.70;;;11.40;99.90;;;10.22;62.60;101982.50;4854306;28;20098;-80
2021/04/17 09:48:42;;;;;;;8.45;1.67;;;12.00;99.90;;;11.14;59.03;101963.38;4846265;28;21784;-83
2021/04/17 09:54:18;;;;;;;8.55;1.50;;;12.40;99.90;;;11.52;55.12;101956.94;4835725;28;20075;-83
2021/04/17 09:57:02;;;;;;;16.20;2.38;;;12.60;99.90;;;11.09;58.72;101966.13;4847521;28;20044;-85
2021/04/17 10:00:13;;;;;;;8.07;1.75;;;12.30;99.90;;;10.51;60.82;101967.75;4828899;28;20093;-82
2021/04/17 10:05:56;;;;;;;11.18;2.10;;;11.00;99.90;;;9.57;65.70;101957.72;4850682;28;20585;-84
2021/04/17 10:20:07;;;;;;;7.40;1.80;;;11.30;99.90;;;9.92;61.97;101971.81;4828171;28;20081;-81
2021/04/17 10:23:52;;;;;;;12.70;2.22;;;11.30;99.90;;;9.49;62.86;101971.94;4831214;28;20199;-83
2021/04/17 10:30:04;;;;;;;16.88;2.03;;;10.80;99.90;;;9.31;63.92;101966.19;4840059;28;20093;-84
2021/04/17 10:32:57;;;;;;;13.73;2.08;;;10.90;99.90;;;9.24;64.88;101962.84;4839571;28;20089;-83
2021/04/17 10:42:58;;;;;;;8.43;1.80;;;11.80;99.90;;;10.43;59.80;101950.41;4842510;28;20526;-83
2021/04/17 10:49:47;;;;;;;6.90;1.85;;;12.00;99.90;;;10.66;60.30;101947.13;4839889;28;20041;-78
2021/04/17 10:52:30;;;;;;;10.27;2.45;;;11.90;99.90;;;10.15;62.07;101946.69;4833094;28;20075;-79
2021/04/17 10:55:01;;;;;;;8.05;2.42;;;11.70;99.90;;;10.26;61.90;101942.91;4855880;28;20081;-75
2021/04/17 10:57:25;;;;;;;9.18;2.20;;;12.20;99.90;;;11.04;62.50;101939.06;4893780;28;20081;-75
2021/04/17 11:00:00;;;;;;;10.85;2.03;;;12.60;99.90;;;10.71;62.57;101936.44;4886505;28;20087;-76
2021/04/17 11:02:30;;;;;;;7.97;2.28;;;12.20;99.90;;;10.91;61.85;101938.56;4886884;28;20056;-76
2021/04/17 11:04:53;;;;;;;8.02;1.88;;;12.50;99.90;;;11.43;58.86;101926.44;4887492;28;20045;-76